Petaluma, California
Current Conditions -  °F | °C
As of 5:35 PM on Friday 24 Oct 2014 (Local Time) from KO69 Reporting Station
Scattered Clouds Scattered Clouds  
Wind Chill: 66°   Ceiling: Unl
Heat Index: 66°   Visibility: 10mi
Dew Point: 55°   Wind: 7mph
Humidity: 68%   Direction: 230°SW
Pressure: 29.91"   Gusts: NA
Location:  38.23°N, 122.64°W
Report Text: KO69 250035Z AUTO 23006KT 10SM SCT026 19/13 A2991 RMK AO1
Loading
Personal Weather Stations






























Interactive Weather Map
Tropical Storm Tracking
New forecast layout! Learn more

10-Day Weather Forecast

Advertisements
Track Severe Weather on mobile